createdAt,value
2018-01-27T00:00:08.974Z,90.61
2018-01-27T00:01:08.984Z,90.61
2018-01-27T00:03:01.938Z,90.61
2018-01-27T00:04:01.940Z,91.19
2018-01-27T00:05:54.875Z,91.47
2018-01-27T00:06:54.891Z,90.61
2018-01-27T00:08:47.847Z,91.38
2018-01-27T00:09:47.845Z,91.28
2018-01-27T00:11:41.296Z,91.19
2018-01-27T00:12:41.312Z,91.19
2018-01-27T00:14:34.268Z,91.19
2018-01-27T00:15:34.268Z,91.38
2018-01-27T00:17:27.223Z,91.38
2018-01-27T00:18:27.221Z,91.56
2018-01-27T00:20:20.158Z,91.75
2018-01-27T00:21:20.217Z,91.75
2018-01-27T00:23:13.132Z,91.56
2018-01-27T00:24:13.129Z,91.38
2018-01-27T00:26:06.066Z,91.47
2018-01-27T00:27:06.084Z,91.38
2018-01-27T00:28:59.100Z,91.56
2018-01-27T00:29:59.037Z,91.47
2018-01-27T00:31:51.987Z,91.19
2018-01-27T00:32:51.992Z,91.19
2018-01-27T00:34:44.946Z,91.38
2018-01-27T00:35:44.945Z,91.75
2018-01-27T00:37:37.900Z,91.38
2018-01-27T00:38:37.898Z,91.75
2018-01-27T00:40:30.837Z,91.75
2018-01-27T00:41:30.874Z,91.66
2018-01-27T00:43:23.809Z,91.75
2018-01-27T00:44:23.807Z,91.94
2018-01-27T00:46:16.744Z,91.75
2018-01-27T00:47:16.761Z,91.66
2018-01-27T00:49:09.718Z,91.75
2018-01-27T00:50:09.716Z,92.13
2018-01-27T00:52:02.658Z,92.32
2018-01-27T00:53:02.677Z,92.32
2018-01-27T00:54:55.625Z,92.32
2018-01-27T00:55:55.623Z,92.51
2018-01-27T00:57:48.580Z,92.23
2018-01-27T00:58:48.579Z,92.42
2018-01-27T01:00:41.517Z,92.32
2018-01-27T01:01:41.535Z,92.04
2018-01-27T01:03:34.490Z,92.32
2018-01-27T01:04:34.522Z,92.04
2018-01-27T01:06:27.425Z,92.23
2018-01-27T01:07:27.441Z,91.85
2018-01-27T01:09:30.429Z,91.75
2018-01-27T01:10:37.480Z,92.32
2018-01-27T01:12:23.257Z,92.51
2018-01-27T01:13:23.281Z,92.37
2018-01-27T01:15:16.194Z,92.32
2018-01-27T01:16:16.190Z,92.56
2018-01-27T01:18:09.106Z,92.32
2018-01-27T01:19:09.106Z,91.75
2018-01-27T01:21:02.004Z,92.04
2018-01-27T01:22:02.021Z,92.51
2018-01-27T01:23:54.938Z,91.94
2018-01-27T01:24:54.934Z,92.13
2018-01-27T01:26:47.835Z,92.04
2018-01-27T01:27:47.850Z,92.04
2018-01-27T01:29:40.767Z,92.23
2018-01-27T01:30:40.811Z,92.23
2018-01-27T01:32:33.693Z,92.13
2018-01-27T01:33:33.681Z,91.75
2018-01-27T01:35:26.597Z,92.32
2018-01-27T01:36:26.599Z,92.32
2018-01-27T01:38:19.507Z,92.51
2018-01-27T01:39:19.504Z,92.71
2018-01-27T01:41:12.441Z,92.13
2018-01-27T01:42:12.510Z,92.32
2018-01-27T01:44:05.339Z,92.18
2018-01-27T01:45:05.344Z,92.18
2018-01-27T01:46:58.232Z,92.13
2018-01-27T01:47:58.250Z,91.99
2018-01-27T01:49:51.167Z,92.18
2018-01-27T01:50:51.163Z,92.04
2018-01-27T01:52:44.059Z,92.18
2018-01-27T01:53:44.074Z,91.99
2018-01-27T01:55:36.995Z,92.27
2018-01-27T01:56:36.994Z,91.80
2018-01-27T01:58:29.915Z,92.08
2018-01-27T01:59:29.913Z,92.27
2018-01-27T02:01:22.811Z,91.80
2018-01-27T02:02:22.853Z,91.85
2018-01-27T02:04:15.760Z,92.13
2018-01-27T02:05:15.760Z,91.94
2018-01-27T02:07:08.677Z,92.13
2018-01-27T02:08:08.691Z,92.13
2018-01-27T02:10:01.609Z,92.42
2018-01-27T02:11:01.612Z,92.23
2018-01-27T02:12:54.510Z,92.46
2018-01-27T02:13:54.545Z,92.08
2018-01-27T02:15:47.440Z,92.42
2018-01-27T02:16:47.550Z,91.66
2018-01-27T02:18:40.352Z,91.99
2018-01-27T02:19:40.350Z,92.08
2018-01-27T02:21:33.252Z,92.56
2018-01-27T02:22:33.267Z,92.37
2018-01-27T02:24:26.187Z,92.37
2018-01-27T02:25:26.186Z,92.56
2018-01-27T02:27:19.091Z,92.18
2018-01-27T02:28:19.107Z,92.46
2018-01-27T02:30:12.025Z,92.37
2018-01-27T02:31:12.023Z,92.27
2018-01-27T02:33:04.923Z,91.52
2018-01-27T02:34:04.937Z,91.71
2018-01-27T02:35:57.856Z,91.71
2018-01-27T02:36:57.855Z,91.71
2018-01-27T02:38:50.770Z,91.47
2018-01-27T02:39:50.773Z,91.80
2018-01-27T02:41:43.665Z,92.61
2018-01-27T02:42:43.684Z,92.75
2018-01-27T02:44:36.601Z,92.18
2018-01-27T02:45:36.601Z,92.56
2018-01-27T02:47:29.505Z,92.46
2018-01-27T02:48:29.518Z,91.71
2018-01-27T02:50:22.434Z,91.80
2018-01-27T02:51:22.432Z,91.89
2018-01-27T02:53:15.331Z,91.71
2018-01-27T02:54:15.349Z,91.52
2018-01-27T02:56:08.263Z,91.80
2018-01-27T02:57:08.262Z,91.99
2018-01-27T02:59:01.182Z,91.89
2018-01-27T03:00:01.178Z,91.80
2018-01-27T03:01:54.096Z,91.80
2018-01-27T03:02:54.098Z,91.80
2018-01-27T03:04:47.015Z,91.89
2018-01-27T03:05:47.017Z,91.80
2018-01-27T03:07:39.945Z,92.18
2018-01-27T03:08:39.983Z,91.80
2018-01-27T03:10:32.872Z,91.33
2018-01-27T03:11:32.871Z,91.80
2018-01-27T03:13:26.764Z,91.61
2018-01-27T03:14:26.781Z,91.61
2018-01-27T03:16:19.833Z,91.23
2018-01-27T03:17:19.696Z,91.23
2018-01-27T03:19:12.804Z,91.23
2018-01-27T03:20:12.797Z,91.42
2018-01-27T03:22:05.696Z,91.23
2018-01-27T03:23:05.826Z,91.52
2018-01-27T03:24:58.633Z,91.61
2018-01-27T03:25:58.631Z,91.61
2018-01-27T03:27:51.527Z,91.23
2018-01-27T03:28:51.545Z,91.52
2018-01-27T03:30:44.463Z,91.52
2018-01-27T03:31:44.462Z,91.23
2018-01-27T03:33:37.378Z,91.42
2018-01-27T03:34:37.398Z,91.04
2018-01-27T03:36:30.312Z,90.85
2018-01-27T03:37:30.312Z,91.04
2018-01-27T03:39:23.228Z,91.23
2018-01-27T03:40:23.230Z,90.75
2018-01-27T03:42:16.136Z,90.75
2018-01-27T03:43:16.153Z,90.75
2018-01-27T03:45:09.074Z,90.75
2018-01-27T03:46:09.073Z,90.66
2018-01-27T03:48:01.969Z,91.13
2018-01-27T03:49:01.987Z,91.13
2018-01-27T03:50:54.906Z,91.13
2018-01-27T03:51:54.905Z,90.66
2018-01-27T03:53:47.803Z,90.75
2018-01-27T03:54:47.826Z,90.75
2018-01-27T03:56:40.734Z,90.56
2018-01-27T03:57:40.733Z,90.94
2018-01-27T03:59:33.652Z,90.94
2018-01-27T04:00:33.648Z,90.85
2018-01-27T04:02:26.548Z,90.85
2018-01-27T04:03:26.567Z,90.66
2018-01-27T04:05:19.490Z,90.47
2018-01-27T04:06:19.486Z,90.37
2018-01-27T04:08:12.384Z,90.66
2018-01-27T04:09:12.400Z,90.85
2018-01-27T04:11:05.317Z,90.66
2018-01-27T04:12:05.317Z,90.56
2018-01-27T04:13:58.219Z,90.94
2018-01-27T04:14:58.237Z,90.47
2018-01-27T04:16:51.156Z,90.85
2018-01-27T04:17:51.157Z,90.66
2018-01-27T04:19:44.075Z,90.85
2018-01-27T04:20:44.075Z,90.66
2018-01-27T04:22:36.980Z,90.85
2018-01-27T04:23:36.993Z,90.47
2018-01-27T04:25:29.909Z,90.28
2018-01-27T04:26:29.908Z,90.28
2018-01-27T04:28:23.801Z,90.00
2018-01-27T04:29:23.836Z,90.19
2018-01-27T04:31:16.736Z,90.75
2018-01-27T04:32:16.746Z,90.85
2018-01-27T04:34:09.632Z,91.13
2018-01-27T04:35:09.648Z,91.23
2018-01-27T04:37:02.564Z,91.23
2018-01-27T04:38:02.562Z,90.85
2018-01-27T04:39:55.482Z,90.85
2018-01-27T04:40:55.484Z,91.52
2018-01-27T04:42:48.379Z,91.42
2018-01-27T04:43:48.396Z,90.94
2018-01-27T04:45:41.310Z,90.85
2018-01-27T04:46:41.310Z,90.85
2018-01-27T04:48:34.209Z,90.85
2018-01-27T04:49:34.227Z,90.75
2018-01-27T04:51:27.146Z,90.85
2018-01-27T04:52:27.143Z,90.75
2018-01-27T04:54:20.054Z,91.33
2018-01-27T04:55:20.073Z,91.23
2018-01-27T04:57:13.188Z,91.04
2018-01-27T04:58:13.190Z,91.13
2018-01-27T05:00:06.102Z,91.42
2018-01-27T05:01:06.099Z,90.85
2018-01-27T05:02:58.997Z,90.85
2018-01-27T05:03:59.016Z,91.04
2018-01-27T05:05:51.934Z,91.23
2018-01-27T05:06:51.934Z,91.23
2018-01-27T05:08:44.830Z,91.04
2018-01-27T05:09:44.849Z,91.04
2018-01-27T05:11:37.760Z,90.75
2018-01-27T05:12:37.761Z,91.23
2018-01-27T05:14:30.663Z,91.52
2018-01-27T05:15:30.677Z,91.42
2018-01-27T05:17:23.594Z,91.23
2018-01-27T05:18:23.593Z,91.23
2018-01-27T05:20:16.513Z,91.80
2018-01-27T05:21:16.507Z,91.80
2018-01-27T05:23:09.406Z,91.80
2018-01-27T05:24:09.423Z,91.23
2018-01-27T05:26:03.359Z,91.13
2018-01-27T05:27:03.369Z,91.33
2018-01-27T05:28:56.253Z,91.33
2018-01-27T05:29:56.276Z,91.23
2018-01-27T05:31:49.187Z,91.23
2018-01-27T05:32:49.186Z,91.42
2018-01-27T05:34:42.083Z,90.75
2018-01-27T05:35:42.104Z,90.85
2018-01-27T05:37:35.014Z,90.66
2018-01-27T05:38:35.018Z,90.47
2018-01-27T05:40:27.933Z,90.66
2018-01-27T05:41:27.931Z,90.75
2018-01-27T05:43:20.830Z,90.66
2018-01-27T05:44:20.849Z,90.75
2018-01-27T05:46:13.762Z,91.04
2018-01-27T05:47:13.762Z,90.85
2018-01-27T05:49:06.661Z,90.75
2018-01-27T05:50:06.679Z,90.85
2018-01-27T05:51:59.604Z,90.75
2018-01-27T05:52:59.605Z,91.23
2018-01-27T05:54:52.523Z,91.04
2018-01-27T05:55:52.544Z,91.42
2018-01-27T05:57:45.457Z,91.13
2018-01-27T05:58:52.576Z,90.94
2018-01-27T06:00:38.370Z,91.04
2018-01-27T06:01:38.369Z,91.52
2018-01-27T06:03:31.266Z,91.33
2018-01-27T06:04:31.282Z,91.33
2018-01-27T06:06:24.198Z,91.23
2018-01-27T06:07:24.198Z,91.42
2018-01-27T06:09:17.094Z,92.18
2018-01-27T06:10:17.113Z,92.18
2018-01-27T06:12:10.028Z,91.89
2018-01-27T06:13:10.025Z,91.99
2018-01-27T06:15:02.923Z,91.89
2018-01-27T06:16:02.940Z,91.71
2018-01-27T06:17:55.855Z,91.80
2018-01-27T06:18:55.857Z,91.80
2018-01-27T06:20:48.773Z,91.80
2018-01-27T06:21:48.771Z,91.80
2018-01-27T06:23:41.677Z,91.71
2018-01-27T06:24:41.696Z,91.80
2018-01-27T06:26:34.610Z,92.08
2018-01-27T06:27:34.655Z,92.08
2018-01-27T06:29:27.505Z,92.37
2018-01-27T06:30:27.572Z,92.27
2018-01-27T06:32:20.445Z,92.18
2018-01-27T06:33:20.443Z,92.27
2018-01-27T06:35:13.351Z,92.66
2018-01-27T06:36:13.359Z,92.75
2018-01-27T06:38:06.274Z,92.85
2018-01-27T06:39:06.273Z,92.75
2018-01-27T06:40:59.194Z,93.41
2018-01-27T06:41:59.190Z,93.32
2018-01-27T06:43:52.085Z,93.32
2018-01-27T06:44:52.101Z,92.85
2018-01-27T06:46:45.019Z,93.32
2018-01-27T06:47:45.019Z,93.32
2018-01-27T06:49:37.926Z,93.13
2018-01-27T06:50:37.931Z,93.27
2018-01-27T06:52:30.849Z,93.56
2018-01-27T06:53:30.846Z,93.08
2018-01-27T06:55:23.749Z,93.65
2018-01-27T06:56:23.761Z,93.46
2018-01-27T06:58:16.677Z,93.23
2018-01-27T06:59:16.676Z,93.37
2018-01-27T07:01:09.594Z,92.32
2018-01-27T07:02:09.590Z,92.32
2018-01-27T07:04:02.487Z,92.04
2018-01-27T07:05:02.505Z,92.13
2018-01-27T07:06:55.419Z,90.99
2018-01-27T07:07:55.418Z,91.38
2018-01-27T07:09:48.321Z,90.71
2018-01-27T07:10:48.337Z,90.42
2018-01-27T07:12:41.253Z,90.71
2018-01-27T07:13:41.259Z,90.42
2018-01-27T07:15:34.147Z,90.80
2018-01-27T07:16:34.164Z,91.38
2018-01-27T07:18:27.077Z,91.38
2018-01-27T07:19:27.076Z,91.38
2018-01-27T07:21:19.991Z,91.19
2018-01-27T07:22:19.988Z,91.19
2018-01-27T07:24:12.884Z,91.28
2018-01-27T07:25:12.903Z,91.09
2018-01-27T07:27:05.833Z,91.38
2018-01-27T07:28:05.826Z,91.19
2018-01-27T07:29:58.725Z,91.38
2018-01-27T07:30:58.739Z,91.19
2018-01-27T07:32:51.657Z,90.99
2018-01-27T07:33:51.655Z,90.52
2018-01-27T07:35:44.552Z,90.90
2018-01-27T07:36:44.569Z,90.80
2018-01-27T07:38:37.483Z,90.14
2018-01-27T07:39:37.480Z,90.33
2018-01-27T07:41:30.403Z,90.42
2018-01-27T07:42:30.396Z,90.23
2018-01-27T07:44:23.292Z,89.86
2018-01-27T07:45:23.309Z,89.86
2018-01-27T07:47:16.231Z,89.76
2018-01-27T07:48:16.228Z,89.38
2018-01-27T07:50:09.128Z,89.67
2018-01-27T07:51:09.144Z,89.57
2018-01-27T07:53:02.060Z,89.28
2018-01-27T07:54:02.058Z,89.67
2018-01-27T07:55:54.960Z,89.47
2018-01-27T07:56:54.973Z,89.47
2018-01-27T07:58:47.886Z,89.47
2018-01-27T07:59:47.886Z,89.47
2018-01-27T08:01:40.809Z,89.86
2018-01-27T08:02:40.803Z,89.67
2018-01-27T08:04:33.696Z,89.47
2018-01-27T08:05:33.716Z,89.09
2018-01-27T08:07:26.630Z,89.42
2018-01-27T08:08:26.627Z,89.61
2018-01-27T08:10:19.539Z,90.05
2018-01-27T08:11:19.549Z,89.95
2018-01-27T08:13:12.481Z,89.52
2018-01-27T08:14:12.460Z,89.61
2018-01-27T08:16:05.365Z,89.52
2018-01-27T08:17:05.375Z,89.71
2018-01-27T08:18:58.296Z,89.76
2018-01-27T08:19:58.291Z,89.90
2018-01-27T08:21:51.207Z,89.90
2018-01-27T08:22:51.209Z,90.09
2018-01-27T08:24:44.105Z,90.42
2018-01-27T08:25:44.123Z,90.28
2018-01-27T08:27:37.068Z,90.09
2018-01-27T08:28:37.068Z,90.09
2018-01-27T08:30:29.964Z,90.09
2018-01-27T08:31:29.981Z,90.28
2018-01-27T08:33:22.899Z,90.37
2018-01-27T08:34:22.899Z,90.66
2018-01-27T08:36:15.795Z,90.28
2018-01-27T08:37:15.815Z,90.28
2018-01-27T08:39:08.732Z,89.90
2018-01-27T08:40:08.730Z,90.09
2018-01-27T08:42:01.655Z,90.28
2018-01-27T08:43:01.649Z,90.09
2018-01-27T08:44:54.544Z,90.47
2018-01-27T08:45:54.561Z,90.19
2018-01-27T08:47:47.477Z,90.19
2018-01-27T08:48:47.473Z,90.37
2018-01-27T08:50:41.053Z,90.37
2018-01-27T08:51:40.398Z,90.85
2018-01-27T08:53:33.314Z,90.66
2018-01-27T08:54:33.313Z,90.75
2018-01-27T08:56:26.239Z,90.47
2018-01-27T08:57:26.346Z,90.75
2018-01-27T08:59:19.225Z,90.47
2018-01-27T09:00:19.225Z,91.04
2018-01-27T09:02:12.170Z,90.85
2018-01-27T09:03:12.166Z,91.04
2018-01-27T09:05:05.084Z,90.47
2018-01-27T09:06:05.102Z,90.56
2018-01-27T09:07:58.026Z,91.13
2018-01-27T09:08:58.023Z,91.04
2018-01-27T09:10:50.928Z,90.99
2018-01-27T09:11:50.946Z,90.75
2018-01-27T09:13:43.910Z,90.70
2018-01-27T09:14:43.873Z,91.47
2018-01-27T09:16:36.758Z,91.56
2018-01-27T09:17:36.776Z,91.66
2018-01-27T09:19:29.691Z,91.08
2018-01-27T09:20:29.691Z,91.28
2018-01-27T09:22:22.606Z,90.70
2018-01-27T09:23:22.626Z,90.08
2018-01-27T09:25:15.641Z,89.32
2018-01-27T09:26:15.551Z,89.80
2018-01-27T09:28:08.470Z,89.70
2018-01-27T09:29:08.468Z,89.04
2018-01-27T09:31:01.571Z,89.04
2018-01-27T09:32:01.589Z,89.14
2018-01-27T09:33:54.509Z,87.99
2018-01-27T09:34:54.508Z,88.46
2018-01-27T09:36:47.403Z,88.66
2018-01-27T09:37:47.422Z,87.90
2018-01-27T09:39:40.355Z,87.90
2018-01-27T09:40:40.343Z,87.80
2018-01-27T09:42:33.301Z,88.75
2018-01-27T09:43:33.321Z,88.18
2018-01-27T09:45:26.257Z,88.18
2018-01-27T09:46:26.237Z,87.71
2018-01-27T09:48:19.179Z,88.18
2018-01-27T09:49:19.178Z,87.90
2018-01-27T09:51:12.095Z,88.37
2018-01-27T09:52:12.113Z,87.80
2018-01-27T09:54:05.030Z,87.80
2018-01-27T09:55:05.032Z,87.61
2018-01-27T09:56:57.929Z,87.42
2018-01-27T09:57:57.945Z,87.61
2018-01-27T09:59:50.912Z,87.42
2018-01-27T10:00:50.914Z,87.90
2018-01-27T10:02:43.814Z,87.52
2018-01-27T10:03:43.848Z,87.52
2018-01-27T10:05:36.750Z,87.42
2018-01-27T10:06:36.755Z,87.04
2018-01-27T10:08:29.670Z,86.85
2018-01-27T10:09:29.668Z,86.47
2018-01-27T10:11:22.582Z,86.47
2018-01-27T10:12:22.598Z,86.09
2018-01-27T10:14:16.498Z,85.90
2018-01-27T10:15:16.498Z,85.24
2018-01-27T10:17:09.397Z,85.80
2018-01-27T10:18:09.416Z,85.90
2018-01-27T10:20:02.332Z,85.33
2018-01-27T10:21:02.342Z,85.24
2018-01-27T10:22:55.241Z,85.04
2018-01-27T10:23:55.251Z,84.95
2018-01-27T10:25:48.172Z,84.85
2018-01-27T10:26:48.171Z,84.85
2018-01-27T10:28:41.089Z,84.47
2018-01-27T10:29:41.089Z,84.66
2018-01-27T10:31:33.985Z,84.85
2018-01-27T10:32:34.005Z,84.76
2018-01-27T10:34:26.922Z,84.95
2018-01-27T10:35:26.921Z,85.24
2018-01-27T10:37:19.849Z,85.99
2018-01-27T10:38:19.848Z,86.18
2018-01-27T10:40:12.760Z,86.13
2018-01-27T10:41:12.757Z,86.32
2018-01-27T10:43:05.657Z,85.28
2018-01-27T10:44:05.682Z,85.66
2018-01-27T10:45:58.593Z,85.08
2018-01-27T10:46:58.593Z,84.61
2018-01-27T10:48:51.522Z,83.18
2018-01-27T10:49:51.513Z,83.28
2018-01-27T10:51:44.414Z,84.04
2018-01-27T10:52:44.433Z,82.14
2018-01-27T10:54:37.370Z,81.18
2018-01-27T10:55:37.353Z,80.71
2018-01-27T10:57:30.251Z,81.95
2018-01-27T10:58:30.270Z,81.66
2018-01-27T11:00:23.191Z,82.19
2018-01-27T11:01:23.191Z,82.19
2018-01-27T11:03:16.140Z,81.76
2018-01-27T11:04:16.106Z,82.14
2018-01-27T11:06:09.033Z,82.42
2018-01-27T11:07:09.024Z,82.04
2018-01-27T11:09:01.945Z,82.14
2018-01-27T11:10:01.944Z,82.04
2018-01-27T11:11:54.905Z,81.95
2018-01-27T11:12:54.903Z,81.76
2018-01-27T11:14:47.782Z,80.90
2018-01-27T11:15:47.783Z,80.71
2018-01-27T11:17:40.682Z,80.13
2018-01-27T11:18:40.700Z,80.61
2018-01-27T11:20:33.705Z,80.33
2018-01-27T11:21:33.622Z,80.33
2018-01-27T11:23:26.527Z,79.57
2018-01-27T11:24:26.544Z,79.38
2018-01-27T11:26:19.465Z,78.71
2018-01-27T11:27:19.463Z,78.61
2018-01-27T11:29:12.385Z,79.09
2018-01-27T11:30:12.385Z,78.42
2018-01-27T11:32:05.290Z,78.52
2018-01-27T11:33:05.309Z,78.42
2018-01-27T11:34:58.228Z,78.71
2018-01-27T11:35:58.230Z,78.61
2018-01-27T11:37:51.134Z,79.33
2018-01-27T11:38:51.176Z,79.72
2018-01-27T11:40:45.067Z,80.29
2018-01-27T11:41:45.068Z,80.47
2018-01-27T11:43:37.974Z,80.57
2018-01-27T11:44:37.990Z,80.86
2018-01-27T11:46:30.910Z,80.95
2018-01-27T11:47:30.912Z,81.43
2018-01-27T11:49:23.834Z,81.43
2018-01-27T11:50:23.836Z,81.05
2018-01-27T11:52:16.737Z,81.05
2018-01-27T11:53:16.755Z,80.86
2018-01-27T11:55:09.673Z,80.76
2018-01-27T11:56:09.673Z,81.05
2018-01-27T11:58:02.578Z,80.86
2018-01-27T11:59:02.598Z,80.57
2018-01-27T12:00:55.517Z,80.95
2018-01-27T12:01:55.517Z,81.05
2018-01-27T12:03:48.419Z,80.86
2018-01-27T12:04:48.438Z,80.95
2018-01-27T12:06:41.361Z,80.95
2018-01-27T12:07:41.365Z,80.57
2018-01-27T12:09:34.280Z,80.95
2018-01-27T12:10:34.284Z,80.86
2018-01-27T12:12:27.182Z,80.95
2018-01-27T12:13:27.203Z,80.86
2018-01-27T12:15:20.134Z,81.05
2018-01-27T12:16:20.119Z,80.95
2018-01-27T12:18:13.026Z,80.76
2018-01-27T12:19:13.038Z,80.19
2018-01-27T12:21:05.979Z,80.86
2018-01-27T12:22:05.957Z,80.66
2018-01-27T12:23:58.860Z,80.57
2018-01-27T12:24:58.879Z,80.00
2018-01-27T12:26:51.819Z,80.38
2018-01-27T12:27:51.797Z,79.91
2018-01-27T12:29:44.739Z,79.62
2018-01-27T12:30:44.726Z,79.81
2018-01-27T12:32:37.643Z,79.72
2018-01-27T12:33:37.648Z,79.62
2018-01-27T12:35:30.572Z,80.10
2018-01-27T12:36:30.568Z,79.81
2018-01-27T12:38:23.475Z,79.43
2018-01-27T12:39:23.492Z,78.96
2018-01-27T12:41:16.410Z,78.57
2018-01-27T12:42:16.414Z,79.52
2018-01-27T12:44:09.314Z,79.66
2018-01-27T12:45:09.334Z,78.80
2018-01-27T12:47:02.253Z,78.33
2018-01-27T12:48:02.254Z,78.14
2018-01-27T12:49:55.214Z,76.71
2018-01-27T12:50:55.212Z,76.42
2018-01-27T12:52:48.120Z,76.33
2018-01-27T12:53:48.171Z,76.81
2018-01-27T12:55:41.061Z,77.09
2018-01-27T12:56:41.075Z,77.66
2018-01-27T12:58:33.967Z,78.23
2018-01-27T12:59:34.002Z,77.85
2018-01-27T13:01:26.916Z,76.33
2018-01-27T13:02:26.919Z,76.42
2018-01-27T13:04:19.844Z,76.90
2018-01-27T13:05:19.865Z,76.61
2018-01-27T13:07:12.814Z,76.90
2018-01-27T13:08:12.817Z,77.00
2018-01-27T13:10:05.741Z,77.28
2018-01-27T13:11:05.740Z,76.71
2018-01-27T13:13:00.140Z,77.28
2018-01-27T13:14:00.163Z,76.14
2018-01-27T13:15:53.085Z,76.84
2018-01-27T13:16:53.082Z,76.75
2018-01-27T13:18:45.991Z,77.22
2018-01-27T13:19:46.010Z,77.37
2018-01-27T13:21:38.934Z,76.84
2018-01-27T13:22:38.933Z,76.46
2018-01-27T13:24:32.332Z,77.03
2018-01-27T13:25:32.356Z,76.75
2018-01-27T13:27:25.283Z,76.56
2018-01-27T13:28:25.285Z,76.46
2018-01-27T13:30:18.211Z,76.18
2018-01-27T13:31:18.213Z,76.71
2018-01-27T13:33:11.125Z,76.04
2018-01-27T13:34:11.151Z,76.04
2018-01-27T13:36:04.071Z,77.19
2018-01-27T13:37:04.076Z,77.19
2018-01-27T13:38:56.977Z,77.37
2018-01-27T13:39:56.998Z,77.03
2018-01-27T13:41:50.921Z,76.81
2018-01-27T13:42:50.921Z,76.61
2018-01-27T13:44:43.829Z,76.81
2018-01-27T13:45:43.850Z,76.42
2018-01-27T13:47:36.772Z,76.81
2018-01-27T13:48:36.771Z,76.61
2018-01-27T13:50:29.698Z,77.56
2018-01-27T13:51:29.694Z,77.37
2018-01-27T13:53:22.601Z,77.28
2018-01-27T13:54:22.622Z,76.61
2018-01-27T13:56:15.543Z,77.19
2018-01-27T13:57:15.550Z,77.19
2018-01-27T13:59:08.452Z,76.90
2018-01-27T14:00:08.488Z,76.81
2018-01-27T14:02:01.407Z,77.19
2018-01-27T14:03:01.428Z,77.28
2018-01-27T14:04:57.305Z,76.90
2018-01-27T14:05:57.324Z,77.22
2018-01-27T14:07:50.254Z,77.32
2018-01-27T14:08:50.249Z,77.32
2018-01-27T14:10:43.183Z,76.84
2018-01-27T14:11:43.172Z,77.51
2018-01-27T14:13:36.077Z,77.03
2018-01-27T14:14:36.095Z,77.32
2018-01-27T14:16:29.577Z,76.65
2018-01-27T14:17:29.535Z,77.42
2018-01-27T14:19:22.465Z,77.03
2018-01-27T14:20:22.486Z,76.75
2018-01-27T14:22:15.411Z,76.56
2018-01-27T14:23:15.409Z,76.94
2018-01-27T14:25:08.319Z,76.08
2018-01-27T14:26:08.340Z,77.03
2018-01-27T14:28:01.277Z,76.46
2018-01-27T14:29:01.272Z,76.18
2018-01-27T14:30:54.196Z,76.14
2018-01-27T14:31:54.198Z,76.14
2018-01-27T14:33:47.100Z,76.90
2018-01-27T14:34:47.119Z,76.71
2018-01-27T14:36:40.046Z,76.90
2018-01-27T14:37:40.048Z,76.61
2018-01-27T14:39:32.951Z,77.00
2018-01-27T14:40:32.969Z,76.90
2018-01-27T14:42:25.894Z,77.37
2018-01-27T14:43:25.892Z,77.47
2018-01-27T14:45:18.798Z,76.84
2018-01-27T14:46:18.817Z,76.84
2018-01-27T14:48:11.742Z,76.04
2018-01-27T14:49:11.743Z,76.04
2018-01-27T14:51:04.668Z,75.85
2018-01-27T14:52:04.668Z,76.42
2018-01-27T14:53:57.574Z,76.71
2018-01-27T14:54:57.593Z,76.61
2018-01-27T14:56:50.524Z,76.61
2018-01-27T14:57:50.521Z,77.00
2018-01-27T14:59:43.428Z,76.76
2018-01-27T15:00:43.446Z,76.57
2018-01-27T15:02:36.867Z,77.24
2018-01-27T15:03:36.867Z,77.15
2018-01-27T15:05:29.770Z,77.05
2018-01-27T15:06:29.789Z,77.34
2018-01-27T15:08:22.717Z,76.96
2018-01-27T15:09:22.723Z,77.05
2018-01-27T15:11:15.642Z,77.53
2018-01-27T15:12:15.641Z,77.53
2018-01-27T15:14:09.058Z,77.62
2018-01-27T15:15:09.074Z,77.53
2018-01-27T15:17:02.012Z,78.16
2018-01-27T15:18:02.011Z,78.34
2018-01-27T15:19:54.909Z,78.16
2018-01-27T15:20:54.931Z,78.34
2018-01-27T15:22:47.849Z,78.63
2018-01-27T15:23:47.848Z,78.44
2018-01-27T15:25:40.760Z,78.63
2018-01-27T15:26:40.767Z,78.44
2018-01-27T15:28:33.702Z,78.44
2018-01-27T15:29:33.686Z,78.91
2018-01-27T15:31:26.686Z,79.86
2018-01-27T15:32:26.607Z,79.68
2018-01-27T15:34:19.506Z,78.82
2018-01-27T15:35:19.524Z,78.82
2018-01-27T15:37:12.471Z,79.11
2018-01-27T15:38:12.442Z,79.20
2018-01-27T15:40:05.344Z,79.86
2018-01-27T15:41:05.361Z,79.30
2018-01-27T15:42:58.412Z,79.30
2018-01-27T15:43:58.311Z,79.44
2018-01-27T15:46:00.420Z,79.54
2018-01-27T15:46:51.777Z,79.83
2018-01-27T15:48:52.229Z,79.63
2018-01-27T15:49:52.228Z,79.92
2018-01-27T15:51:45.673Z,79.44
2018-01-27T15:52:45.674Z,79.54
2018-01-27T15:54:38.610Z,79.83
2018-01-27T15:55:38.628Z,79.73
2018-01-27T15:57:31.590Z,79.92
2018-01-27T15:58:31.618Z,79.83
2018-01-27T16:00:26.054Z,79.92
2018-01-27T16:01:26.400Z,80.11
2018-01-27T16:03:19.044Z,80.11
2018-01-27T16:04:19.029Z,80.40
2018-01-27T16:06:11.986Z,80.21
2018-01-27T16:07:11.980Z,80.21
2018-01-27T16:09:04.908Z,80.30
2018-01-27T16:10:04.904Z,80.77
2018-01-27T16:11:58.533Z,81.25
2018-01-27T16:12:57.863Z,80.77
2018-01-27T16:14:51.289Z,80.87
2018-01-27T16:15:50.822Z,80.87
2018-01-27T16:17:43.761Z,80.83
2018-01-27T16:18:43.753Z,81.25
2018-01-27T16:20:36.671Z,80.74
2018-01-27T16:21:36.676Z,81.68
2018-01-27T16:23:30.182Z,81.44
2018-01-27T16:24:30.099Z,81.35
2018-01-27T16:26:23.103Z,81.68
2018-01-27T16:27:23.217Z,81.78
2018-01-27T16:29:16.023Z,81.49
2018-01-27T16:30:16.025Z,81.59
2018-01-27T16:32:08.943Z,81.68
2018-01-27T16:33:08.940Z,82.07
2018-01-27T16:35:01.847Z,82.07
2018-01-27T16:36:01.857Z,81.97
2018-01-27T16:37:54.777Z,82.73
2018-01-27T16:38:54.776Z,82.45
2018-01-27T16:40:48.170Z,82.35
2018-01-27T16:41:48.224Z,82.64
2018-01-27T16:43:41.106Z,82.64
2018-01-27T16:44:41.109Z,82.64
2018-01-27T16:46:34.029Z,82.45
2018-01-27T16:47:34.088Z,82.73
2018-01-27T16:49:28.005Z,82.92
2018-01-27T16:50:27.959Z,82.64
2018-01-27T16:52:21.374Z,82.64
2018-01-27T16:53:21.370Z,83.11
2018-01-27T16:55:14.271Z,82.35
2018-01-27T16:56:14.288Z,82.45
2018-01-27T16:58:07.207Z,83.20
2018-01-27T16:59:07.204Z,82.54
2018-01-27T17:01:00.117Z,82.45
2018-01-27T17:02:00.148Z,82.64
2018-01-27T17:03:53.043Z,82.73
2018-01-27T17:04:53.088Z,82.64
2018-01-27T17:06:45.957Z,82.64
2018-01-27T17:07:45.954Z,82.54
2018-01-27T17:09:38.858Z,82.73
2018-01-27T17:10:38.874Z,82.73
2018-01-27T17:12:31.875Z,82.54
2018-01-27T17:13:31.870Z,83.11
2018-01-27T17:15:27.901Z,83.11
2018-01-27T17:16:27.935Z,82.54
2018-01-27T17:18:21.364Z,83.20
2018-01-27T17:19:21.457Z,83.20
2018-01-27T17:21:14.304Z,83.11
2018-01-27T17:22:14.321Z,82.92
2018-01-27T17:24:07.276Z,82.73
2018-01-27T17:25:07.272Z,82.54
2018-01-27T17:27:00.293Z,82.64
2018-01-27T17:28:00.247Z,82.82
2018-01-27T17:29:53.159Z,83.68
2018-01-27T17:30:53.177Z,84.25
2018-01-27T17:32:46.139Z,84.53
2018-01-27T17:33:46.131Z,84.53
2018-01-27T17:35:39.099Z,83.78
2018-01-27T17:36:39.092Z,83.20
2018-01-27T17:38:32.162Z,83.49
2018-01-27T17:39:32.042Z,83.30
2018-01-27T17:41:24.977Z,83.59
2018-01-27T17:42:25.010Z,83.30
2018-01-27T17:44:17.951Z,83.01
2018-01-27T17:45:17.952Z,83.01
2018-01-27T17:47:10.913Z,84.06
2018-01-27T17:48:10.905Z,83.01
2018-01-27T17:50:03.864Z,83.30
2018-01-27T17:51:03.874Z,83.49
2018-01-27T17:52:56.816Z,83.49
2018-01-27T17:53:56.815Z,83.20
2018-01-27T17:55:49.748Z,83.59
2018-01-27T17:56:49.819Z,83.68
2018-01-27T17:58:42.766Z,82.92
2018-01-27T17:59:42.762Z,83.30
2018-01-27T18:01:35.699Z,83.49
2018-01-27T18:02:35.695Z,84.06
2018-01-27T18:04:28.637Z,83.78
2018-01-27T18:05:28.646Z,84.25
2018-01-27T18:07:22.096Z,83.97
2018-01-27T18:08:22.176Z,84.25
2018-01-27T18:10:15.080Z,83.97
2018-01-27T18:11:15.049Z,83.68
2018-01-27T18:13:08.617Z,84.25
2018-01-27T18:14:08.531Z,83.78
2018-01-27T18:16:02.476Z,83.87
2018-01-27T18:17:02.523Z,84.06
2018-01-27T18:18:55.452Z,83.68
2018-01-27T18:19:55.447Z,83.68
2018-01-27T18:21:48.427Z,83.97
2018-01-27T18:22:48.412Z,83.78
2018-01-27T18:24:41.359Z,83.97
2018-01-27T18:25:41.356Z,83.49
2018-01-27T18:27:34.319Z,83.30
2018-01-27T18:28:34.310Z,83.87
2018-01-27T18:30:27.369Z,84.25
2018-01-27T18:31:27.376Z,84.53
2018-01-27T18:33:20.354Z,84.06